createdAt,value
2022-12-04T00:02:42.023Z,65.57
2022-12-04T00:12:43.508Z,65.20
2022-12-04T00:22:44.942Z,65.55
2022-12-04T00:32:46.419Z,65.54
2022-12-04T00:42:47.868Z,66.57
2022-12-04T00:52:49.377Z,66.75
2022-12-04T01:02:50.851Z,66.99
2022-12-04T01:12:55.485Z,66.78
2022-12-04T01:22:56.990Z,66.80
2022-12-04T01:32:58.466Z,66.74
2022-12-04T01:43:00.101Z,67.08
2022-12-04T01:53:01.849Z,65.79
2022-12-04T02:03:03.386Z,64.79
2022-12-04T02:13:14.163Z,65.00
2022-12-04T02:23:25.751Z,65.57
2022-12-04T02:33:39.119Z,65.10
2022-12-04T02:43:47.762Z,65.12
2022-12-04T02:53:57.179Z,66.55
2022-12-04T03:04:20.668Z,66.71
2022-12-04T03:14:33.768Z,67.68
2022-12-04T03:24:40.975Z,67.49
2022-12-04T03:35:03.558Z,68.14
2022-12-04T03:45:22.210Z,68.60
2022-12-04T03:55:29.539Z,67.93
2022-12-04T04:05:34.139Z,68.34
2022-12-04T04:15:57.762Z,67.33
2022-12-04T04:26:02.644Z,67.89
2022-12-04T04:36:14.396Z,67.90
2022-12-04T04:46:28.674Z,68.06
2022-12-04T04:56:31.425Z,68.10
2022-12-04T05:06:33.594Z,68.99
2022-12-04T05:16:35.509Z,68.66
2022-12-04T05:26:36.989Z,68.07
2022-12-04T05:36:38.447Z,68.67
2022-12-04T05:46:39.962Z,67.79
2022-12-04T05:56:41.464Z,67.08
2022-12-04T06:06:43.007Z,66.54
2022-12-04T06:16:46.510Z,66.48
2022-12-04T06:27:25.149Z,66.38
2022-12-04T06:37:10.614Z,67.29
2022-12-04T06:47:12.207Z,67.97
2022-12-04T06:57:13.753Z,69.17
2022-12-04T07:07:15.224Z,67.10
2022-12-04T07:17:16.742Z,67.55
2022-12-04T07:27:18.208Z,69.29
2022-12-04T07:37:19.668Z,67.48
2022-12-04T07:47:21.210Z,66.79
2022-12-04T07:57:22.879Z,66.27
2022-12-04T08:07:24.342Z,65.65
2022-12-04T08:17:25.998Z,66.11
2022-12-04T08:27:27.489Z,65.81
2022-12-04T08:37:29.001Z,66.42
2022-12-04T08:47:30.459Z,65.53
2022-12-04T08:57:31.896Z,64.78
2022-12-04T09:07:33.421Z,64.28
2022-12-04T09:17:36.303Z,63.94
2022-12-04T09:27:38.917Z,64.14
2022-12-04T09:37:40.421Z,64.18
2022-12-04T09:47:48.523Z,62.99
2022-12-04T09:58:00.034Z,62.13
2022-12-04T10:08:16.112Z,63.82
2022-12-04T10:18:45.661Z,62.68
2022-12-04T10:28:55.542Z,61.55
2022-12-04T10:39:01.155Z,61.17
2022-12-04T10:49:10.924Z,61.39
2022-12-04T10:59:15.963Z,60.81
2022-12-04T11:09:24.151Z,60.47
2022-12-04T11:19:28.450Z,60.95
2022-12-04T11:29:44.456Z,60.74
2022-12-04T11:39:46.636Z,59.95
2022-12-04T11:50:01.596Z,58.92
2022-12-04T12:00:16.382Z,58.13
2022-12-04T12:10:26.841Z,57.28
2022-12-04T12:20:38.000Z,57.37
2022-12-04T12:31:25.978Z,56.38
2022-12-04T12:41:35.966Z,56.66
2022-12-04T12:51:41.418Z,56.31
2022-12-04T13:02:00.866Z,56.78
2022-12-04T13:12:09.417Z,57.70
2022-12-04T13:22:16.879Z,58.03
2022-12-04T13:32:59.682Z,58.18
2022-12-04T13:43:33.310Z,58.71
2022-12-04T13:53:37.872Z,58.67
2022-12-04T14:03:50.378Z,58.72
2022-12-04T14:14:01.198Z,59.00
2022-12-04T14:24:25.312Z,58.91
2022-12-04T14:34:29.731Z,59.29
2022-12-04T14:44:31.901Z,59.62
2022-12-04T14:54:45.062Z,60.74
2022-12-04T15:04:49.093Z,61.62
2022-12-04T15:14:50.873Z,61.20
2022-12-04T15:24:53.399Z,61.20
2022-12-04T15:35:00.947Z,60.91
2022-12-04T15:45:25.404Z,60.89
2022-12-04T15:55:30.557Z,61.31
2022-12-04T16:05:36.424Z,62.00
2022-12-04T16:15:43.719Z,62.60
2022-12-04T16:25:45.304Z,63.49
2022-12-04T16:35:46.781Z,63.49
2022-12-04T16:45:51.933Z,63.25
2022-12-04T16:55:53.475Z,63.30
2022-12-04T17:05:55.917Z,63.81
2022-12-04T17:15:58.597Z,63.71
2022-12-04T17:26:02.184Z,63.22
2022-12-04T17:36:08.946Z,63.39
2022-12-04T17:46:13.656Z,63.31
2022-12-04T17:56:18.585Z,63.43
2022-12-04T18:06:29.098Z,63.95
2022-12-04T18:16:32.039Z,63.66
2022-12-04T18:26:36.262Z,63.64
2022-12-04T18:36:39.259Z,63.90
2022-12-04T18:46:41.659Z,64.10
2022-12-04T18:56:44.164Z,64.21
2022-12-04T19:06:48.343Z,64.66
2022-12-04T19:16:51.368Z,63.93
2022-12-04T19:26:53.930Z,63.78
2022-12-04T19:36:55.378Z,64.25
2022-12-04T19:46:56.855Z,64.79
2022-12-04T19:56:58.353Z,65.32
2022-12-04T20:06:59.810Z,65.18
2022-12-04T20:17:04.086Z,66.23
2022-12-04T20:27:05.729Z,66.10
2022-12-04T20:37:07.220Z,65.82
2022-12-04T20:47:08.739Z,66.85
2022-12-04T20:57:10.432Z,66.50
2022-12-04T21:07:11.923Z,67.78
2022-12-04T21:17:18.405Z,67.70
2022-12-04T21:27:21.385Z,67.69
2022-12-04T21:37:23.037Z,67.85
2022-12-04T21:47:24.717Z,68.43
2022-12-04T21:57:27.671Z,68.69
2022-12-04T22:07:29.209Z,68.71
2022-12-04T22:17:30.925Z,68.22
2022-12-04T22:27:32.387Z,68.55
2022-12-04T22:37:34.090Z,68.58
2022-12-04T22:47:35.544Z,68.25
2022-12-04T22:57:37.231Z,68.46
2022-12-04T23:07:39.263Z,68.09
2022-12-04T23:17:40.838Z,68.64
2022-12-04T23:27:42.289Z,68.18
2022-12-04T23:37:43.901Z,68.22
2022-12-04T23:47:45.434Z,68.13
2022-12-04T23:57:47.064Z,67.78
